Time;durP1;ratioP1;P1;durP2;ratioP2;P2;SDS_P1;SDS_P2;PMS_P1;PMS_P2;Temp;Humidity;BMP_temperature;BMP_pressure;BME280_temperature;BME280_humidity;BME280_pressure;Samples;Min_cycle;Max_cycle;Signal;HPM_P1;HPM_P2
2022/10/17 00:00:39;;;;;;;10.50;3.37;;;19.80;69.10;;;;;;5090515;27;20470;-89
2022/10/17 00:03:08;;;;;;;2.70;2.40;;;19.90;68.90;;;;;;5118580;27;21311;-89
2022/10/17 00:05:39;;;;;;;2.93;2.40;;;19.40;67.70;;;;;;5101655;27;20934;-88
2022/10/17 00:08:06;;;;;;;1.90;1.80;;;18.90;68.60;;;;;;5106172;28;20462;-89
2022/10/17 00:10:33;;;;;;;2.80;2.23;;;18.50;68.90;;;;;;5090992;27;20529;-88
2022/10/17 00:13:01;;;;;;;4.20;2.33;;;18.30;69.40;;;;;;5087527;27;20480;-89
2022/10/17 00:15:28;;;;;;;2.07;1.90;;;18.40;69.30;;;;;;5116882;27;20462;-88
2022/10/17 00:17:55;;;;;;;2.47;2.27;;;18.30;68.00;;;;;;5107412;27;20507;-88
2022/10/17 00:20:24;;;;;;;2.67;2.00;;;18.20;68.00;;;;;;5113765;27;20482;-88
2022/10/17 00:22:51;;;;;;;2.10;2.00;;;18.10;68.30;;;;;;5093220;27;20454;-88
2022/10/17 00:25:19;;;;;;;2.30;2.00;;;18.30;68.80;;;;;;5091156;28;21047;-89
2022/10/17 00:27:46;;;;;;;2.83;2.63;;;18.50;68.00;;;;;;5105690;27;20442;-86
2022/10/17 00:30:16;;;;;;;2.17;2.07;;;18.70;67.40;;;;;;5104850;27;20442;-89
2022/10/17 00:32:43;;;;;;;3.03;2.83;;;18.70;67.60;;;;;;5101700;27;20490;-88
2022/10/17 00:35:11;;;;;;;6.40;2.60;;;18.50;68.00;;;;;;5113686;27;20449;-88
2022/10/17 00:37:39;;;;;;;5.73;2.87;;;18.70;68.00;;;;;;5100042;27;20435;-89
2022/10/17 00:40:08;;;;;;;7.40;2.23;;;18.90;68.00;;;;;;5102011;28;22273;-88
2022/10/17 00:42:35;;;;;;;9.47;2.97;;;19.10;67.70;;;;;;5118717;27;21026;-88
2022/10/17 00:45:21;;;;;;;23.77;3.50;;;19.10;68.30;;;;;;5124200;27;20450;-87
2022/10/17 00:47:53;;;;;;;99.00;7.90;;;19.20;67.60;;;;;;5085017;27;20474;-87
2022/10/17 00:50:25;;;;;;;30.50;3.87;;;19.00;68.70;;;;;;5124599;27;20449;-87
2022/10/17 00:52:54;;;;;;;8.93;3.17;;;18.70;69.80;;;;;;5117714;27;20453;-88
2022/10/17 00:55:28;;;;;;;55.93;5.40;;;18.80;70.00;;;;;;5119821;27;20474;-88
2022/10/17 00:57:56;;;;;;;48.43;5.40;;;19.00;69.70;;;;;;5096515;27;20453;-88
2022/10/17 01:00:25;;;;;;;47.00;4.47;;;19.00;68.70;;;;;;5107478;27;20443;-89
2022/10/17 01:02:52;;;;;;;20.07;3.13;;;18.80;69.20;;;;;;5101519;28;20463;-87
2022/10/17 01:05:20;;;;;;;151.43;7.20;;;18.80;69.40;;;;;;5098633;27;20450;-88
2022/10/17 01:07:50;;;;;;;101.43;6.20;;;18.90;69.40;;;;;;5121450;27;20454;-89
2022/10/17 01:10:19;;;;;;;27.60;3.10;;;18.80;68.20;;;;;;5117980;27;20473;-89
2022/10/17 01:12:59;;;;;;;12.87;2.80;;;18.10;69.90;;;;;;5124435;27;20476;-89
2022/10/17 01:15:39;;;;;;;13.00;2.87;;;18.20;69.90;;;;;;5083520;27;20499;-88
2022/10/17 01:18:17;;;;;;;37.40;3.57;;;17.90;70.30;;;;;;5090285;28;20434;-88
2022/10/17 01:21:04;;;;;;;23.17;3.03;;;17.70;71.60;;;;;;5092583;27;20507;-87
2022/10/17 01:23:55;;;;;;;10.27;2.70;;;17.60;71.80;;;;;;5086935;27;20458;-88
2022/10/17 01:26:34;;;;;;;5.30;2.53;;;17.50;72.60;;;;;;5123251;27;20474;-87
2022/10/17 01:29:25;;;;;;;51.17;4.20;;;17.50;72.30;;;;;;5088411;27;20486;-88
2022/10/17 01:31:59;;;;;;;5.07;2.50;;;17.40;73.00;;;;;;5100911;27;21273;-89
2022/10/17 01:34:32;;;;;;;18.13;3.27;;;17.30;72.60;;;;;;5103235;27;20478;-88
2022/10/17 01:37:05;;;;;;;26.20;3.63;;;17.30;73.60;;;;;;5099636;27;20467;-87
2022/10/17 01:39:41;;;;;;;47.70;4.90;;;17.50;72.80;;;;;;5095351;28;20478;-89
2022/10/17 01:42:15;;;;;;;23.33;3.90;;;17.70;71.90;;;;;;5105140;27;20876;-87
2022/10/17 01:44:49;;;;;;;65.57;5.40;;;17.80;72.10;;;;;;5102273;27;20449;-87
2022/10/17 01:47:21;;;;;;;35.70;3.90;;;17.70;71.70;;;;;;5125548;27;20438;-88
2022/10/17 01:49:51;;;;;;;86.67;6.43;;;17.50;72.90;;;;;;5085229;28;20512;-86
2022/10/17 01:52:23;;;;;;;58.20;5.53;;;17.70;72.50;;;;;;5123401;27;20919;-87
2022/10/17 01:54:53;;;;;;;37.10;4.57;;;17.70;73.10;;;;;;5105581;27;20463;-89
2022/10/17 01:57:29;;;;;;;46.77;4.57;;;17.80;72.50;;;;;;5118259;27;20470;-87
2022/10/17 01:59:56;;;;;;;73.77;7.17;;;17.90;72.10;;;;;;5101727;27;20474;-89
2022/10/17 02:02:26;;;;;;;22.47;3.00;;;18.20;70.90;;;;;;5113390;27;20474;-87
2022/10/17 02:04:56;;;;;;;26.73;3.70;;;18.20;70.40;;;;;;5088220;27;20457;-87
2022/10/17 02:07:23;;;;;;;204.27;9.77;;;18.20;70.00;;;;;;5094699;27;20473;-88
2022/10/17 02:09:50;;;;;;;21.63;3.00;;;18.10;70.20;;;;;;5100107;27;20442;-89
2022/10/17 02:12:48;;;;;;;3.80;2.37;;;17.80;70.60;;;;;;5089804;28;20471;-87
2022/10/17 02:15:38;;;;;;;13.23;2.50;;;17.60;71.00;;;;;;5089581;27;20485;-87
2022/10/17 02:18:18;;;;;;;19.00;3.10;;;17.40;71.60;;;;;;5114260;27;20473;-88
2022/10/17 02:20:52;;;;;;;16.33;2.80;;;17.30;71.90;;;;;;5115914;28;20477;-87
2022/10/17 02:23:27;;;;;;;8.80;2.13;;;17.20;72.60;;;;;;5115048;28;20496;-88
2022/10/17 02:26:01;;;;;;;5.00;2.90;;;17.50;72.40;;;;;;5105428;28;20442;-89
2022/10/17 02:28:33;;;;;;;42.23;3.87;;;17.80;70.80;;;;;;5090447;28;20457;-89
2022/10/17 02:31:06;;;;;;;64.63;4.47;;;18.00;69.40;;;;;;5098347;28;20476;-87
2022/10/17 02:33:41;;;;;;;76.13;4.43;;;17.50;70.50;;;;;;5089629;28;20438;-89
2022/10/17 02:36:14;;;;;;;55.17;5.50;;;17.60;70.80;;;;;;5102142;28;20465;-90
2022/10/17 02:38:43;;;;;;;32.40;3.90;;;17.40;71.60;;;;;;5123838;28;21258;-89
2022/10/17 02:41:16;;;;;;;40.43;3.83;;;17.50;70.90;;;;;;5090220;28;20478;-89
2022/10/17 02:43:45;;;;;;;4.83;2.10;;;17.40;71.40;;;;;;5116889;28;20475;-87
2022/10/17 02:46:19;;;;;;;7.50;2.60;;;17.70;71.20;;;;;;5102391;28;20427;-88
2022/10/17 02:48:52;;;;;;;10.63;3.17;;;18.00;70.30;;;;;;5085895;28;21021;-89
2022/10/17 02:51:25;;;;;;;44.50;4.93;;;18.30;69.70;;;;;;5120538;28;21025;-88
2022/10/17 02:54:00;;;;;;;10.80;2.90;;;18.40;68.70;;;;;;5088716;28;20442;-88
2022/10/17 02:56:31;;;;;;;134.87;9.27;;;18.40;69.00;;;;;;5121876;28;20465;-88
2022/10/17 02:59:00;;;;;;;11.33;2.90;;;18.50;68.90;;;;;;5083992;28;20530;-87
2022/10/17 03:01:29;;;;;;;45.97;5.07;;;18.70;68.60;;;;;;5115061;28;20499;-90
2022/10/17 03:04:07;;;;;;;39.77;3.70;;;18.70;68.50;;;;;;5104916;28;20469;-88
2022/10/17 03:06:34;;;;;;;21.50;3.10;;;18.60;68.30;;;;;;5097922;28;20930;-88
2022/10/17 03:09:01;;;;;;;28.03;3.97;;;18.40;69.30;;;;;;5112855;28;20535;-89
2022/10/17 03:11:30;;;;;;;8.90;2.90;;;18.50;69.40;;;;;;5089610;28;20467;-89
2022/10/17 03:13:57;;;;;;;25.07;2.93;;;18.60;68.80;;;;;;5112109;28;20441;-89
2022/10/17 03:16:24;;;;;;;20.37;3.27;;;18.50;69.10;;;;;;5114478;28;20498;-87
2022/10/17 03:18:51;;;;;;;15.17;2.70;;;18.60;68.90;;;;;;5097414;28;20564;-89
2022/10/17 03:21:20;;;;;;;10.47;3.00;;;18.50;68.60;;;;;;5123477;28;20469;-88
2022/10/17 03:23:48;;;;;;;8.77;2.70;;;18.40;68.40;;;;;;5101819;28;21046;-88
2022/10/17 03:26:16;;;;;;;6.40;2.10;;;18.40;68.80;;;;;;5090465;27;20430;-88
2022/10/17 03:28:43;;;;;;;18.67;2.70;;;18.50;68.60;;;;;;5084945;27;20438;-88
2022/10/17 03:31:13;;;;;;;34.30;3.30;;;18.40;68.40;;;;;;5120193;27;20473;-89
2022/10/17 03:33:40;;;;;;;18.60;3.40;;;18.30;69.40;;;;;;5104406;27;20938;-89
2022/10/17 03:36:09;;;;;;;20.43;3.63;;;18.50;68.40;;;;;;5098815;27;20482;-89
2022/10/17 03:38:38;;;;;;;7.00;3.13;;;18.60;67.90;;;;;;5101606;27;20450;-89
2022/10/17 03:41:06;;;;;;;12.17;3.13;;;18.60;67.60;;;;;;5103024;27;20470;-88
2022/10/17 03:43:34;;;;;;;136.13;7.60;;;18.60;67.60;;;;;;5089761;27;20453;-89
2022/10/17 03:46:01;;;;;;;16.77;2.70;;;18.60;67.80;;;;;;5093532;27;20506;-88
2022/10/17 03:48:31;;;;;;;31.90;4.30;;;18.60;67.60;;;;;;5113762;27;20448;-89
2022/10/17 03:51:00;;;;;;;17.07;2.77;;;18.60;67.50;;;;;;5101082;27;20996;-87
2022/10/17 03:53:28;;;;;;;21.90;3.23;;;18.60;67.50;;;;;;5092076;27;20451;-89
2022/10/17 03:56:09;;;;;;;23.40;3.10;;;18.70;67.60;;;;;;5107936;27;20788;-88
2022/10/17 03:58:37;;;;;;;75.93;5.40;;;18.50;67.90;;;;;;5121919;27;20474;-88
2022/10/17 04:01:04;;;;;;;10.17;3.60;;;18.30;68.00;;;;;;5101841;27;20527;-89
2022/10/17 04:03:32;;;;;;;63.40;5.17;;;18.20;68.50;;;;;;5108095;27;21176;-88
2022/10/17 04:05:59;;;;;;;32.27;3.67;;;18.20;68.00;;;;;;5101766;27;20451;-89
2022/10/17 04:08:27;;;;;;;10.47;2.80;;;18.00;69.20;;;;;;5084707;27;20482;-89
2022/10/17 04:11:11;;;;;;;1.80;1.70;;;17.80;68.60;;;;;;5102517;27;20470;-88
2022/10/17 04:13:38;;;;;;;3.63;1.63;;;17.70;68.30;;;;;;5087733;27;20541;-87
2022/10/17 04:16:10;;;;;;;1.53;1.43;;;17.20;67.80;;;;;;5118582;27;20445;-87
2022/10/17 04:18:43;;;;;;;1.70;1.60;;;16.90;68.50;;;;;;5115534;27;20470;-90
2022/10/17 04:21:11;;;;;;;1.40;1.30;;;16.60;69.40;;;;;;5106892;27;20477;-88
2022/10/17 04:23:38;;;;;;;6.53;2.00;;;16.40;69.00;;;;;;5090172;27;20447;-86
2022/10/17 04:26:17;;;;;;;4.90;2.30;;;16.20;70.80;;;;;;5109172;28;20583;-87
2022/10/17 04:28:44;;;;;;;1.93;1.30;;;16.70;70.60;;;;;;5084737;27;20446;-87
2022/10/17 04:31:13;;;;;;;2.30;2.10;;;17.00;69.80;;;;;;5098237;27;20485;-88
2022/10/17 04:34:00;;;;;;;10.73;4.83;;;17.20;68.80;;;;;;5102117;27;20550;-88
2022/10/17 04:36:27;;;;;;;2.33;1.60;;;17.10;68.30;;;;;;5101286;27;20522;-88
2022/10/17 04:38:55;;;;;;;2.13;1.93;;;17.40;68.70;;;;;;5105832;28;20460;-88
2022/10/17 04:41:24;;;;;;;3.07;2.77;;;17.60;67.40;;;;;;5090164;27;20467;-89
2022/10/17 04:43:52;;;;;;;22.40;2.90;;;17.70;66.90;;;;;;5088909;27;20469;-91
2022/10/17 04:46:20;;;;;;;3.33;2.67;;;17.80;66.50;;;;;;5120661;27;20507;-90
2022/10/17 04:48:49;;;;;;;21.73;3.43;;;17.90;66.40;;;;;;5108509;27;20956;-89
2022/10/17 04:51:18;;;;;;;76.37;6.00;;;18.00;66.50;;;;;;5104226;27;20459;-91
2022/10/17 04:54:08;;;;;;;9.80;2.70;;;17.90;66.80;;;;;;5102512;27;20446;-89
2022/10/17 04:56:37;;;;;;;39.23;5.17;;;17.80;68.00;;;;;;5107323;27;20764;-90
2022/10/17 04:59:05;;;;;;;19.80;3.60;;;18.00;67.90;;;;;;5106296;27;20454;-90
2022/10/17 05:01:32;;;;;;;39.70;4.00;;;18.00;67.50;;;;;;5094932;27;21065;-90
2022/10/17 05:04:00;;;;;;;18.30;3.37;;;17.90;68.00;;;;;;5089891;27;20447;-91
2022/10/17 05:06:28;;;;;;;13.87;3.60;;;17.70;68.20;;;;;;5081471;27;20482;-91
2022/10/17 05:09:24;;;;;;;11.87;2.77;;;17.60;67.80;;;;;;5088158;27;20951;-90
2022/10/17 05:11:53;;;;;;;48.73;4.80;;;17.70;67.60;;;;;;5091309;27;20476;-89
2022/10/17 05:14:20;;;;;;;45.57;5.90;;;17.50;66.90;;;;;;5116423;27;20473;-90
2022/10/17 05:16:48;;;;;;;25.30;4.53;;;17.40;67.70;;;;;;5089190;28;20451;-91
2022/10/17 05:19:16;;;;;;;11.20;3.53;;;17.40;68.20;;;;;;5105254;27;20445;-88
2022/10/17 05:21:46;;;;;;;16.23;3.20;;;17.50;68.30;;;;;;5087366;27;20465;-91
2022/10/17 05:24:15;;;;;;;79.97;5.83;;;17.50;68.60;;;;;;5114232;27;20523;-91
2022/10/17 05:26:42;;;;;;;65.77;5.13;;;17.40;68.20;;;;;;5099265;27;20506;-90
2022/10/17 05:29:10;;;;;;;12.93;3.47;;;17.50;68.30;;;;;;5105986;28;20457;-88
2022/10/17 05:31:43;;;;;;;195.03;11.93;;;17.50;68.70;;;;;;5080001;27;20473;-90
2022/10/17 05:34:10;;;;;;;53.57;5.30;;;17.60;67.50;;;;;;5089032;27;20442;-89
2022/10/17 05:36:38;;;;;;;105.50;10.53;;;17.40;68.00;;;;;;5086884;27;20466;-90
2022/10/17 05:39:06;;;;;;;241.70;10.73;;;17.50;68.10;;;;;;5088881;28;20528;-90
2022/10/17 05:41:35;;;;;;;166.37;9.10;;;17.40;67.80;;;;;;5089750;27;20467;-90
2022/10/17 05:44:02;;;;;;;57.57;5.27;;;16.90;69.60;;;;;;5103452;27;20459;-90
2022/10/17 05:46:40;;;;;;;132.60;9.07;;;17.20;69.30;;;;;;5094393;27;20463;-91
2022/10/17 05:49:09;;;;;;;167.77;9.73;;;17.20;68.70;;;;;;5085902;27;20876;-90
2022/10/17 05:51:36;;;;;;;111.80;9.30;;;17.00;69.10;;;;;;5106686;27;20458;-91
2022/10/17 05:54:05;;;;;;;22.33;4.00;;;16.90;69.80;;;;;;5106551;27;20430;-91
2022/10/17 05:56:33;;;;;;;11.77;4.23;;;17.00;70.30;;;;;;5089209;27;20528;-91
2022/10/17 05:59:01;;;;;;;10.30;3.57;;;17.20;69.50;;;;;;5107724;27;20501;-89
2022/10/17 06:01:52;;;;;;;32.53;3.93;;;17.40;68.80;;;;;;5084348;27;20462;-89
2022/10/17 06:04:20;;;;;;;49.20;4.23;;;17.50;68.30;;;;;;5102886;27;20529;-90
2022/10/17 06:06:48;;;;;;;3.47;3.17;;;17.20;67.80;;;;;;5087009;28;20435;-91
2022/10/17 06:09:15;;;;;;;8.20;2.73;;;17.20;68.70;;;;;;5083485;27;20462;-90
2022/10/17 06:11:46;;;;;;;5.10;2.80;;;17.40;68.30;;;;;;5095425;28;20474;-88
2022/10/17 06:14:14;;;;;;;5.83;2.87;;;17.60;68.00;;;;;;5084867;28;20498;-89
2022/10/17 06:16:42;;;;;;;3.50;3.20;;;17.60;67.40;;;;;;5118400;27;20441;-89
2022/10/17 06:19:11;;;;;;;10.40;3.03;;;17.60;67.70;;;;;;5097247;27;21027;-90
2022/10/17 06:21:38;;;;;;;5.27;2.60;;;17.60;67.50;;;;;;5117707;27;20479;-91
2022/10/17 06:24:14;;;;;;;7.60;3.20;;;17.50;67.60;;;;;;5100740;28;20535;-90
2022/10/17 06:26:43;;;;;;;14.07;3.27;;;17.70;66.90;;;;;;5088216;28;20458;-89
2022/10/17 06:29:12;;;;;;;18.57;2.90;;;17.90;66.60;;;;;;5097841;28;20572;-89
2022/10/17 06:31:47;;;;;;;4.53;2.93;;;18.00;66.40;;;;;;5099588;28;20996;-90
2022/10/17 06:34:16;;;;;;;3.83;3.40;;;18.00;66.60;;;;;;5097249;28;20439;-90
2022/10/17 06:36:44;;;;;;;5.83;3.50;;;18.10;66.10;;;;;;5085099;28;21271;-90
2022/10/17 06:39:12;;;;;;;10.07;4.10;;;18.10;65.80;;;;;;5104339;28;20466;-90
2022/10/17 06:41:48;;;;;;;7.77;3.00;;;17.90;66.40;;;;;;5089400;28;20461;-89
2022/10/17 06:44:18;;;;;;;20.13;3.80;;;17.80;67.10;;;;;;5097145;28;21457;-91
2022/10/17 06:46:55;;;;;;;30.63;4.07;;;17.60;67.10;;;;;;5090190;28;20442;-90
2022/10/17 06:49:24;;;;;;;7.77;2.93;;;17.30;67.70;;;;;;5095778;28;20978;-91
2022/10/17 06:51:57;;;;;;;9.00;3.63;;;17.50;67.70;;;;;;5088989;28;20469;-91
2022/10/17 06:54:44;;;;;;;42.53;4.53;;;17.80;67.30;;;;;;5083372;28;20459;-90
2022/10/17 06:57:43;;;;;;;39.63;6.97;;;17.70;67.00;;;;;;5083659;28;21147;-88
2022/10/17 07:00:43;;;;;;;13.40;4.53;;;17.60;67.40;;;;;;5085984;28;20474;-87
2022/10/17 07:03:11;;;;;;;14.50;4.80;;;17.70;67.60;;;;;;5118934;27;20457;-89
2022/10/17 07:05:40;;;;;;;88.43;7.30;;;17.60;67.20;;;;;;5103869;27;20528;-89
2022/10/17 07:08:07;;;;;;;49.80;6.87;;;17.40;67.80;;;;;;5090429;27;20486;-88
2022/10/17 07:10:38;;;;;;;9.40;6.13;;;17.20;68.90;;;;;;5125114;27;20460;-90
2022/10/17 07:13:07;;;;;;;19.03;3.93;;;17.20;69.50;;;;;;5100246;27;20473;-92
2022/10/17 07:15:37;;;;;;;23.80;5.50;;;17.20;69.40;;;;;;5102903;27;20457;-89
2022/10/17 07:18:04;;;;;;;57.37;5.83;;;17.40;69.20;;;;;;5109037;27;20554;-90
2022/10/17 07:20:31;;;;;;;24.27;5.10;;;17.30;68.50;;;;;;5108447;27;20468;-88
2022/10/17 07:23:00;;;;;;;49.50;6.73;;;17.20;68.80;;;;;;5124292;27;20450;-90
2022/10/17 07:25:28;;;;;;;8.20;4.13;;;17.20;68.70;;;;;;5089197;27;21209;-90
2022/10/17 07:28:01;;;;;;;18.43;4.60;;;17.30;68.90;;;;;;5093775;27;20468;-90
2022/10/17 07:30:28;;;;;;;37.47;6.60;;;17.20;68.80;;;;;;5100531;28;20454;-91
2022/10/17 07:33:14;;;;;;;5.53;3.60;;;17.20;68.70;;;;;;5093388;27;20430;-90
2022/10/17 07:35:41;;;;;;;10.73;3.80;;;17.20;69.00;;;;;;5102080;27;20469;-91
2022/10/17 07:38:10;;;;;;;44.67;6.03;;;17.20;69.10;;;;;;5122216;27;20832;-91
2022/10/17 07:40:37;;;;;;;17.40;4.27;;;17.30;68.80;;;;;;5087140;27;20484;-91
2022/10/17 07:43:04;;;;;;;20.20;4.57;;;17.40;68.60;;;;;;5093692;27;20446;-91
2022/10/17 07:45:32;;;;;;;11.13;4.33;;;17.50;69.10;;;;;;5099928;27;20475;-92
2022/10/17 07:47:59;;;;;;;26.97;6.00;;;17.60;69.10;;;;;;5092003;27;20474;-92
2022/10/17 07:50:26;;;;;;;78.17;11.50;;;17.60;69.00;;;;;;5106349;27;20481;-90
2022/10/17 07:52:53;;;;;;;10.03;5.50;;;17.50;68.40;;;;;;5105343;27;20442;-88
2022/10/17 07:55:22;;;;;;;23.70;4.70;;;17.30;69.30;;;;;;5107164;27;20844;-90
2022/10/17 07:57:49;;;;;;;99.33;8.60;;;17.60;69.80;;;;;;5123832;27;20465;-90
2022/10/17 08:00:16;;;;;;;26.53;6.20;;;17.70;68.60;;;;;;5123444;27;20458;-91
2022/10/17 08:02:43;;;;;;;20.97;7.87;;;17.90;68.60;;;;;;5123056;27;20481;-88
2022/10/17 08:05:11;;;;;;;39.13;7.90;;;17.90;68.50;;;;;;5120599;27;20442;-89
2022/10/17 08:07:39;;;;;;;20.60;5.50;;;17.90;68.20;;;;;;5102122;27;20785;-89
2022/10/17 08:10:06;;;;;;;56.37;6.73;;;17.70;68.30;;;;;;5103722;27;20467;-90
2022/10/17 08:12:35;;;;;;;95.20;12.37;;;17.40;68.90;;;;;;5090744;28;20499;-89
2022/10/17 08:15:03;;;;;;;23.83;5.40;;;17.40;69.30;;;;;;5122302;27;20529;-88
2022/10/17 08:17:30;;;;;;;33.77;5.87;;;17.30;69.40;;;;;;5120885;27;20517;-89
2022/10/17 08:19:57;;;;;;;52.47;7.67;;;17.40;69.90;;;;;;5107861;27;20569;-89
2022/10/17 08:22:24;;;;;;;64.13;7.80;;;17.30;70.30;;;;;;5122512;27;20470;-91
2022/10/17 08:24:52;;;;;;;21.73;5.80;;;17.40;69.60;;;;;;5110669;27;20446;-91
2022/10/17 08:27:22;;;;;;;11.30;4.17;;;17.50;70.10;;;;;;5118897;27;20446;-90
2022/10/17 08:29:53;;;;;;;26.77;5.17;;;17.80;69.20;;;;;;5102608;27;20435;-89
2022/10/17 08:32:20;;;;;;;14.00;5.70;;;18.10;67.60;;;;;;5089552;27;20486;-91
2022/10/17 08:34:48;;;;;;;12.47;5.60;;;18.10;67.80;;;;;;5095366;27;20473;-89
2022/10/17 08:37:15;;;;;;;44.57;8.40;;;17.90;68.10;;;;;;5109809;27;20497;-89
2022/10/17 08:39:43;;;;;;;29.97;6.83;;;17.60;68.70;;;;;;5106275;27;20546;-90
2022/10/17 08:42:30;;;;;;;38.47;6.73;;;17.30;69.50;;;;;;5094139;27;20489;-88
2022/10/17 08:45:11;;;;;;;7.70;5.87;;;17.40;70.10;;;;;;5118658;27;20486;-89
2022/10/17 08:47:42;;;;;;;11.87;5.97;;;17.70;69.80;;;;;;5104422;27;20441;-89
2022/10/17 08:50:15;;;;;;;27.33;5.97;;;18.10;69.10;;;;;;5106966;27;21168;-90
2022/10/17 08:52:47;;;;;;;12.93;5.37;;;18.40;67.30;;;;;;5109856;27;21123;-90
2022/10/17 08:55:16;;;;;;;10.43;6.10;;;18.50;66.90;;;;;;5114056;27;20532;-89
2022/10/17 08:57:44;;;;;;;11.10;6.87;;;18.50;66.70;;;;;;5083367;27;20502;-89
2022/10/17 09:00:18;;;;;;;27.20;6.07;;;18.30;67.90;;;;;;5109854;27;20472;-89
2022/10/17 09:02:57;;;;;;;7.33;5.50;;;18.10;67.90;;;;;;5105487;27;20469;-89
2022/10/17 09:05:34;;;;;;;9.73;5.30;;;17.90;69.70;;;;;;5101967;27;20508;-88
2022/10/17 09:08:14;;;;;;;8.23;5.70;;;18.30;69.40;;;;;;5103379;27;20442;-91
2022/10/17 09:10:52;;;;;;;6.70;5.60;;;18.20;69.00;;;;;;5120705;27;20469;-89
2022/10/17 09:13:30;;;;;;;9.20;6.43;;;18.10;69.70;;;;;;5110692;27;20445;-90
2022/10/17 09:16:11;;;;;;;11.10;6.10;;;18.20;69.80;;;;;;5125718;27;20451;-89
2022/10/17 09:18:41;;;;;;;9.47;6.07;;;18.30;69.40;;;;;;5091173;27;20966;-90
2022/10/17 09:21:18;;;;;;;10.13;6.50;;;18.60;68.40;;;;;;5118251;27;20466;-89
2022/10/17 09:23:50;;;;;;;8.33;5.87;;;18.70;67.60;;;;;;5115140;27;20876;-89
2022/10/17 09:26:18;;;;;;;6.97;6.00;;;18.70;68.70;;;;;;5122181;27;21017;-91
2022/10/17 09:28:52;;;;;;;6.60;5.90;;;18.80;68.50;;;;;;5120310;27;20471;-91
2022/10/17 09:31:23;;;;;;;8.17;6.53;;;18.90;69.00;;;;;;5088392;28;20458;-89
2022/10/17 09:33:52;;;;;;;6.47;5.87;;;18.90;67.90;;;;;;5099067;27;20885;-87
2022/10/17 09:36:22;;;;;;;8.07;7.00;;;18.80;68.80;;;;;;5108693;27;21164;-90
2022/10/17 09:38:54;;;;;;;8.73;6.77;;;18.90;68.30;;;;;;5100556;27;20523;-90
2022/10/17 09:41:24;;;;;;;7.17;6.13;;;19.10;68.50;;;;;;5106754;27;20562;-88
2022/10/17 09:43:55;;;;;;;7.63;5.87;;;19.10;67.90;;;;;;5124029;27;20462;-91
2022/10/17 09:46:30;;;;;;;8.53;5.93;;;19.20;67.70;;;;;;5119161;27;20481;-87
2022/10/17 09:49:02;;;;;;;8.00;6.80;;;19.20;67.60;;;;;;5099795;28;20885;-87
2022/10/17 09:51:30;;;;;;;7.50;6.10;;;19.10;68.30;;;;;;5118936;27;20474;-88
2022/10/17 09:54:03;;;;;;;14.30;12.20;;;18.90;69.30;;;;;;5102883;27;20443;-91
2022/10/17 09:56:30;;;;;;;11.67;7.87;;;18.80;70.00;;;;;;5102005;27;20478;-88
2022/10/17 09:58:58;;;;;;;8.63;6.80;;;18.90;69.70;;;;;;5089999;27;20477;-88
2022/10/17 10:01:29;;;;;;;6.47;5.80;;;19.10;68.60;;;;;;5123177;27;20461;-90
2022/10/17 10:04:10;;;;;;;7.70;6.30;;;19.30;68.70;;;;;;5116550;27;20447;-90
2022/10/17 10:06:38;;;;;;;7.30;6.50;;;19.60;67.60;;;;;;5123772;27;20489;-89
2022/10/17 10:09:06;;;;;;;6.63;5.97;;;19.60;67.60;;;;;;5117442;27;20444;-87
2022/10/17 10:11:48;;;;;;;10.70;6.17;;;19.80;67.50;;;;;;5094497;27;20470;-90
2022/10/17 10:14:22;;;;;;;6.20;5.50;;;19.90;67.10;;;;;;5083419;27;20450;-89
2022/10/17 10:16:53;;;;;;;5.33;4.83;;;19.80;68.20;;;;;;5115796;27;21315;-89
2022/10/17 10:19:28;;;;;;;6.07;5.40;;;19.70;68.80;;;;;;5081244;28;21049;-90
2022/10/17 10:21:57;;;;;;;7.20;4.87;;;20.00;68.50;;;;;;5100907;28;20462;-91
2022/10/17 10:24:26;;;;;;;6.13;5.50;;;20.20;68.10;;;;;;5116993;27;20460;-89
2022/10/17 10:26:57;;;;;;;6.90;5.90;;;20.40;67.70;;;;;;5113215;28;20454;-88
2022/10/17 10:29:29;;;;;;;5.93;4.10;;;20.60;67.30;;;;;;5098599;28;20426;-89
2022/10/17 10:32:07;;;;;;;4.80;4.40;;;20.70;66.50;;;;;;5112854;28;20562;-88
2022/10/17 10:34:36;;;;;;;4.93;4.43;;;20.60;67.20;;;;;;5102850;28;20599;-86
2022/10/17 10:37:06;;;;;;;7.10;6.40;;;20.60;67.30;;;;;;5112007;27;20455;-87
2022/10/17 10:39:42;;;;;;;6.57;4.33;;;20.90;67.30;;;;;;5116838;27;20810;-89
2022/10/17 10:42:21;;;;;;;4.67;4.27;;;21.00;66.60;;;;;;5114531;27;20518;-88
2022/10/17 10:44:50;;;;;;;7.23;4.70;;;20.90;66.70;;;;;;5113366;27;20987;-90
2022/10/17 10:47:27;;;;;;;4.53;3.37;;;21.10;66.90;;;;;;5113803;27;21239;-88
2022/10/17 10:50:18;;;;;;;4.90;4.33;;;21.20;66.80;;;;;;5113392;27;20545;-88
2022/10/17 10:52:50;;;;;;;5.40;4.30;;;21.30;66.70;;;;;;5122557;27;20465;-88
2022/10/17 10:55:26;;;;;;;7.57;4.23;;;21.30;67.10;;;;;;5119940;27;20465;-89
2022/10/17 10:57:57;;;;;;;5.27;3.60;;;21.30;66.70;;;;;;5121894;27;20463;-87
2022/10/17 11:00:27;;;;;;;3.83;3.53;;;21.50;66.30;;;;;;5115658;27;20462;-88
2022/10/17 11:03:02;;;;;;;5.67;3.90;;;21.50;66.60;;;;;;5099724;27;21264;-86
2022/10/17 11:05:40;;;;;;;6.33;3.80;;;21.50;66.80;;;;;;5117053;27;20450;-86
2022/10/17 11:08:17;;;;;;;5.40;3.80;;;21.60;67.10;;;;;;5119324;27;20464;-88
2022/10/17 11:10:56;;;;;;;3.20;3.00;;;21.80;66.80;;;;;;5101390;27;21281;-88
2022/10/17 11:13:27;;;;;;;4.40;3.00;;;21.90;66.70;;;;;;5104873;27;20946;-87
2022/10/17 11:16:02;;;;;;;3.93;3.53;;;22.20;66.50;;;;;;5123351;27;20972;-88
2022/10/17 11:18:35;;;;;;;3.90;3.60;;;22.40;65.30;;;;;;5118001;27;20442;-88
2022/10/17 11:21:10;;;;;;;6.03;3.80;;;22.60;65.50;;;;;;5114833;27;21021;-89
2022/10/17 11:23:42;;;;;;;5.13;4.00;;;22.80;65.00;;;;;;5121132;27;20441;-89
2022/10/17 11:26:16;;;;;;;6.00;3.10;;;23.10;64.60;;;;;;5116432;27;20480;-87
2022/10/17 11:28:43;;;;;;;3.53;3.23;;;23.40;63.70;;;;;;5101739;27;20527;-89
2022/10/17 11:31:13;;;;;;;3.30;3.00;;;23.60;64.20;;;;;;5085259;27;20466;-88
2022/10/17 11:33:47;;;;;;;9.67;3.23;;;23.80;63.90;;;;;;5122607;27;20450;-90
2022/10/17 11:36:17;;;;;;;7.07;3.07;;;24.00;62.90;;;;;;5120629;27;20982;-88
2022/10/17 11:38:49;;;;;;;4.00;3.40;;;24.10;62.10;;;;;;5123422;27;20441;-87
2022/10/17 11:41:26;;;;;;;3.40;3.03;;;24.10;61.80;;;;;;5086758;28;20564;-87
2022/10/17 11:43:58;;;;;;;4.67;3.10;;;24.30;62.90;;;;;;5117456;27;20545;-88
2022/10/17 11:46:27;;;;;;;2.80;2.60;;;24.40;61.80;;;;;;5101252;27;20451;-87
2022/10/17 11:49:06;;;;;;;3.07;2.87;;;24.50;61.00;;;;;;5102299;27;20454;-89
2022/10/17 11:51:42;;;;;;;2.80;2.60;;;24.70;61.20;;;;;;5116454;27;20476;-88
2022/10/17 11:54:16;;;;;;;4.03;2.77;;;24.90;60.90;;;;;;5121167;27;20477;-88
2022/10/17 11:56:50;;;;;;;3.50;2.90;;;24.80;60.10;;;;;;5102231;27;20446;-88
2022/10/17 11:59:45;;;;;;;3.67;2.47;;;24.90;60.50;;;;;;5089310;27;20453;-92
2022/10/17 12:02:22;;;;;;;9.53;3.17;;;25.20;61.20;;;;;;5115918;27;20530;-86
2022/10/17 12:05:01;;;;;;;2.97;2.40;;;25.40;60.20;;;;;;5091633;28;20439;-89
2022/10/17 12:07:36;;;;;;;3.70;2.70;;;25.60;60.40;;;;;;5096068;27;20533;-89
2022/10/17 12:10:16;;;;;;;5.37;2.40;;;25.60;61.00;;;;;;5119026;27;20441;-89
2022/10/17 12:12:43;;;;;;;6.73;2.70;;;25.80;60.20;;;;;;5114144;27;20523;-89
2022/10/17 12:15:30;;;;;;;3.30;2.40;;;26.10;60.50;;;;;;5113700;27;20768;-88
2022/10/17 12:18:01;;;;;;;3.50;2.40;;;26.30;59.00;;;;;;5113584;27;20458;-88
2022/10/17 12:20:35;;;;;;;2.20;2.07;;;26.40;58.30;;;;;;5095159;27;20472;-89
2022/10/17 12:23:18;;;;;;;6.53;2.27;;;26.30;57.80;;;;;;5105277;27;20458;-88
2022/10/17 12:25:50;;;;;;;2.97;2.70;;;26.40;58.50;;;;;;5119599;27;20438;-88
2022/10/17 12:28:25;;;;;;;2.80;2.30;;;26.40;58.10;;;;;;5116657;27;20442;-87
2022/10/17 12:30:56;;;;;;;3.70;2.30;;;26.60;58.30;;;;;;5114181;27;21224;-89
2022/10/17 12:33:30;;;;;;;2.70;2.50;;;26.70;59.30;;;;;;5099786;27;20454;-89
2022/10/17 12:36:46;;;;;;;2.70;2.33;;;27.00;59.70;;;;;;5098826;27;20562;-88
2022/10/17 12:39:51;;;;;;;2.80;2.57;;;27.10;58.90;;;;;;5112280;27;21214;-88
2022/10/17 12:42:44;;;;;;;2.40;2.20;;;27.20;59.10;;;;;;5100394;27;20515;-88
2022/10/17 12:45:46;;;;;;;2.47;2.33;;;27.20;58.00;;;;;;5113889;27;20447;-90
2022/10/17 12:48:13;;;;;;;4.07;2.40;;;27.30;57.00;;;;;;5096751;27;20446;-90
2022/10/17 12:51:03;;;;;;;5.10;2.30;;;27.30;56.30;;;;;;5112881;27;20533;-89
2022/10/17 12:53:40;;;;;;;3.03;2.60;;;27.30;56.80;;;;;;5095454;28;20443;-87
2022/10/17 12:56:07;;;;;;;3.80;2.20;;;27.50;57.60;;;;;;5122352;27;20445;-88
2022/10/17 12:58:36;;;;;;;3.50;2.17;;;27.50;57.50;;;;;;5109520;27;20504;-88
2022/10/17 13:01:07;;;;;;;2.27;2.07;;;27.50;55.60;;;;;;5085194;27;20583;-88
2022/10/17 13:03:43;;;;;;;4.30;2.30;;;27.50;55.80;;;;;;5107656;27;20458;-88
2022/10/17 13:06:19;;;;;;;3.40;2.23;;;27.50;55.90;;;;;;5113937;27;20985;-89